Time;durP1;ratioP1;P1;durP2;ratioP2;P2;SDS_P1;SDS_P2;PMS_P1;PMS_P2;Temp;Humidity;BMP_temperature;BMP_pressure;BME280_temperature;BME280_humidity;BME280_pressure;Samples;Min_cycle;Max_cycle;Signal;HPM_P1;HPM_P2
2023/04/23 00:01:27;;;;;;;1999.90;999.90;;;19.60;99.90;;;;;;5047866;28;20357;-68
2023/04/23 00:03:59;;;;;;;1999.90;999.90;;;20.00;99.90;;;;;;5049242;28;20492;-68
2023/04/23 00:06:29;;;;;;;1999.90;999.90;;;20.40;99.90;;;;;;5042789;28;20391;-68
2023/04/23 00:08:59;;;;;;;1999.90;999.90;;;20.70;99.90;;;;;;5053088;28;20115;-69
2023/04/23 00:11:27;;;;;;;1999.90;999.90;;;21.00;99.90;;;;;;5062171;28;20060;-71
2023/04/23 00:13:54;;;;;;;1999.90;999.90;;;21.20;99.90;;;;;;5059206;28;20032;-69
2023/04/23 00:16:23;;;;;;;1999.90;999.90;;;21.30;99.90;;;;;;5046597;28;20105;-69
2023/04/23 00:18:50;;;;;;;1999.90;999.90;;;21.30;99.90;;;;;;5052748;28;20048;-69
2023/04/23 00:21:17;;;;;;;1999.90;999.90;;;21.30;99.90;;;;;;5049767;28;20544;-69
2023/04/23 00:23:45;;;;;;;1999.90;999.90;;;21.40;99.90;;;;;;5055573;28;20161;-69
2023/04/23 00:26:12;;;;;;;1999.90;999.90;;;21.30;99.90;;;;;;5047638;28;20081;-69
2023/04/23 00:28:40;;;;;;;1999.90;999.90;;;21.40;99.90;;;;;;5057405;28;20036;-70
2023/04/23 00:31:07;;;;;;;1999.90;999.90;;;21.40;99.90;;;;;;5053921;28;20032;-69
2023/04/23 00:33:35;;;;;;;1999.90;999.90;;;21.60;99.90;;;;;;5058406;28;20052;-70
2023/04/23 00:36:02;;;;;;;1999.90;999.90;;;22.10;99.90;;;;;;5031154;28;20024;-68
2023/04/23 00:38:30;;;;;;;1999.90;999.90;;;22.40;99.90;;;;;;5050926;28;20095;-70
2023/04/23 00:40:57;;;;;;;1999.90;999.90;;;22.60;99.90;;;;;;5043728;28;20097;-70
2023/04/23 00:43:25;;;;;;;1999.90;999.90;;;22.90;99.90;;;;;;5051184;28;20112;-68
2023/04/23 00:45:52;;;;;;;1999.90;999.90;;;23.20;99.90;;;;;;5046162;28;20479;-67
2023/04/23 00:48:21;;;;;;;1999.90;999.90;;;23.50;99.90;;;;;;5035221;28;20044;-68
2023/04/23 00:50:48;;;;;;;1999.90;999.90;;;23.90;99.90;;;;;;5043513;28;20129;-69
2023/04/23 00:53:16;;;;;;;1999.90;999.90;;;24.50;99.90;;;;;;5054828;28;20036;-68
2023/04/23 00:55:43;;;;;;;1999.90;999.90;;;25.30;99.90;;;;;;5045720;28;20124;-67
2023/04/23 00:58:10;;;;;;;1999.90;999.90;;;26.20;99.90;;;;;;5052988;28;20041;-70
2023/04/23 01:00:45;;;;;;;1999.90;999.90;;;26.80;99.90;;;;;;5046055;28;20104;-70
2023/04/23 01:03:12;;;;;;;1999.90;999.90;;;27.50;99.90;;;;;;5056500;28;20029;-69
2023/04/23 01:05:42;;;;;;;1999.90;999.90;;;27.90;99.90;;;;;;5050566;28;20021;-70
2023/04/23 01:08:13;;;;;;;1999.90;999.90;;;27.90;99.90;;;;;;5052676;28;20025;-70
2023/04/23 01:10:42;;;;;;;1999.90;999.90;;;28.10;99.90;;;;;;5049821;28;20080;-70
2023/04/23 01:13:11;;;;;;;1999.90;999.90;;;28.30;98.90;;;;;;5055528;28;20075;-69
2023/04/23 01:15:38;;;;;;;1999.90;999.90;;;28.30;98.20;;;;;;5046023;28;20040;-71
2023/04/23 01:18:09;;;;;;;1999.90;999.90;;;29.00;98.20;;;;;;5051087;28;20044;-69
2023/04/23 01:20:38;;;;;;;1999.90;999.90;;;29.60;97.10;;;;;;5047172;28;20037;-71
2023/04/23 01:23:08;;;;;;;1999.90;999.90;;;30.50;96.70;;;;;;5052649;28;20104;-69
2023/04/23 01:25:35;;;;;;;1999.90;999.90;;;29.90;95.80;;;;;;5043393;28;20094;-69
2023/04/23 01:28:05;;;;;;;1999.90;999.90;;;30.00;96.30;;;;;;5049339;28;20091;-69
2023/04/23 01:30:32;;;;;;;1999.90;999.90;;;30.80;95.70;;;;;;5056499;28;20032;-69
2023/04/23 01:33:00;;;;;;;1999.90;999.90;;;31.60;94.90;;;;;;5043861;28;20022;-68
2023/04/23 01:35:29;;;;;;;1999.90;999.90;;;32.10;94.00;;;;;;5030943;28;20108;-67
2023/04/23 01:37:58;;;;;;;1999.90;999.90;;;32.40;93.60;;;;;;5030371;28;20803;-68
2023/04/23 01:40:25;;;;;;;1999.90;999.90;;;32.50;93.30;;;;;;5026790;28;20026;-68
2023/04/23 01:42:53;;;;;;;1999.90;999.90;;;32.80;92.70;;;;;;5048871;28;20039;-68
2023/04/23 01:45:21;;;;;;;1999.90;999.90;;;32.70;91.70;;;;;;5041093;28;20080;-68
2023/04/23 01:47:48;;;;;;;1999.90;999.90;;;32.40;91.90;;;;;;5050010;28;20484;-67
2023/04/23 01:50:16;;;;;;;1999.90;999.90;;;32.00;91.70;;;;;;5045396;28;20703;-68
2023/04/23 01:52:44;;;;;;;1999.90;999.90;;;30.90;92.00;;;;;;5043993;28;20390;-68
2023/04/23 01:55:13;;;;;;;1999.90;999.90;;;29.80;92.80;;;;;;5044433;28;20028;-68
2023/04/23 01:57:40;;;;;;;1999.90;999.90;;;29.70;93.00;;;;;;5044511;28;20029;-68
2023/04/23 02:00:10;;;;;;;1999.90;999.90;;;29.30;92.90;;;;;;5041400;28;20052;-68
2023/04/23 02:02:39;;;;;;;1999.90;999.90;;;28.60;93.80;;;;;;5042135;28;20732;-67
2023/04/23 02:05:12;;;;;;;1999.90;999.90;;;27.90;94.30;;;;;;5034151;28;20035;-68
2023/04/23 02:07:40;;;;;;;1999.90;999.90;;;27.30;95.20;;;;;;5047644;28;20103;-68
2023/04/23 02:10:08;;;;;;;1999.90;999.90;;;26.70;95.40;;;;;;5045866;28;20049;-67
2023/04/23 02:12:36;;;;;;;1999.90;999.90;;;26.30;96.00;;;;;;5052781;28;20063;-68
2023/04/23 02:15:05;;;;;;;1999.90;999.90;;;25.90;96.30;;;;;;5052061;28;20500;-68
2023/04/23 02:17:34;;;;;;;1999.90;999.90;;;25.60;96.60;;;;;;5055943;28;20025;-68
2023/04/23 02:20:01;;;;;;;1999.90;999.90;;;25.20;97.20;;;;;;5045358;28;20048;-67
2023/04/23 02:22:30;;;;;;;1999.90;999.90;;;24.90;97.50;;;;;;5053039;28;20637;-68
2023/04/23 02:24:58;;;;;;;1999.90;999.90;;;24.50;98.20;;;;;;5031618;28;20461;-67
2023/04/23 02:27:26;;;;;;;1999.90;999.90;;;24.30;98.70;;;;;;5053123;28;20082;-67
2023/04/23 02:29:53;;;;;;;1999.90;999.90;;;24.20;98.70;;;;;;5046134;28;20040;-67
2023/04/23 02:32:21;;;;;;;1999.90;999.90;;;24.70;98.80;;;;;;5046051;28;20024;-69
2023/04/23 02:34:48;;;;;;;1999.90;999.90;;;25.50;98.80;;;;;;5049922;28;20116;-69
2023/04/23 02:37:15;;;;;;;1999.90;999.90;;;25.80;98.10;;;;;;5054732;28;20024;-69
2023/04/23 02:39:42;;;;;;;1999.90;999.90;;;25.80;98.10;;;;;;5044469;28;20032;-69
2023/04/23 02:42:10;;;;;;;1999.90;999.90;;;26.30;98.20;;;;;;5053366;28;20116;-69
2023/04/23 02:44:37;;;;;;;1999.90;999.90;;;27.00;97.70;;;;;;5048140;28;20041;-69
2023/04/23 02:47:05;;;;;;;1999.90;999.90;;;27.80;96.70;;;;;;5056804;28;20013;-67
2023/04/23 02:49:32;;;;;;;1999.90;999.90;;;27.80;96.30;;;;;;5058877;28;20079;-68
2023/04/23 02:52:00;;;;;;;1999.90;999.90;;;27.80;96.50;;;;;;5053411;28;20084;-68
2023/04/23 02:54:27;;;;;;;1999.90;999.90;;;27.90;96.30;;;;;;5055792;28;20028;-69
2023/04/23 02:56:56;;;;;;;1999.90;999.90;;;27.80;96.00;;;;;;5053684;28;20035;-69
2023/04/23 02:59:23;;;;;;;1999.90;999.90;;;28.10;95.50;;;;;;5055737;28;20064;-68
2023/04/23 03:01:51;;;;;;;1999.90;999.90;;;28.00;95.50;;;;;;5056545;28;20025;-67
2023/04/23 03:04:19;;;;;;;1999.90;999.90;;;28.30;95.20;;;;;;5054825;28;20059;-67
2023/04/23 03:06:46;;;;;;;1999.90;999.90;;;28.50;95.20;;;;;;5053821;28;20025;-68
2023/04/23 03:09:14;;;;;;;1999.90;999.90;;;28.60;95.00;;;;;;5054434;28;20075;-68
2023/04/23 03:11:41;;;;;;;1999.90;999.90;;;28.60;94.50;;;;;;5048087;28;20021;-68
2023/04/23 03:14:08;;;;;;;1999.90;999.90;;;28.60;95.00;;;;;;5047818;28;20017;-67
2023/04/23 03:16:36;;;;;;;1999.90;999.90;;;28.80;94.00;;;;;;5044889;28;20104;-69
2023/04/23 03:19:03;;;;;;;1999.90;999.90;;;28.70;93.70;;;;;;5045080;28;20064;-69
2023/04/23 03:21:30;;;;;;;1999.90;999.90;;;28.60;94.00;;;;;;5048027;28;20049;-69
2023/04/23 03:23:58;;;;;;;1999.90;999.90;;;28.50;93.60;;;;;;5058398;28;20489;-68
2023/04/23 03:26:25;;;;;;;1999.90;999.90;;;28.20;93.90;;;;;;5051902;28;20673;-68
2023/04/23 03:28:53;;;;;;;1999.90;999.90;;;27.60;94.40;;;;;;5048083;28;20029;-68
2023/04/23 03:31:20;;;;;;;1999.90;999.90;;;27.20;95.00;;;;;;5044754;28;20024;-69
2023/04/23 03:33:47;;;;;;;1999.90;999.90;;;27.00;95.10;;;;;;5038061;28;20037;-69
2023/04/23 03:36:15;;;;;;;1999.90;999.90;;;26.80;95.20;;;;;;5035734;28;20156;-69
2023/04/23 03:38:42;;;;;;;1999.90;999.90;;;26.60;95.50;;;;;;5041387;28;20069;-69
2023/04/23 03:41:10;;;;;;;1999.90;999.90;;;26.50;95.80;;;;;;5027845;28;20116;-69
2023/04/23 03:43:37;;;;;;;1999.90;999.90;;;26.50;96.10;;;;;;5038503;28;20102;-69
2023/04/23 03:46:05;;;;;;;1999.90;999.90;;;26.30;95.90;;;;;;5038611;28;20108;-69
2023/04/23 03:48:32;;;;;;;1999.90;999.90;;;26.10;96.30;;;;;;5039212;28;20071;-69
2023/04/23 03:51:00;;;;;;;1999.90;999.90;;;25.70;96.00;;;;;;5039243;28;20139;-68
2023/04/23 03:53:27;;;;;;;1999.90;999.90;;;25.30;96.90;;;;;;5041012;28;20039;-68
2023/04/23 03:55:54;;;;;;;1999.90;999.90;;;25.20;96.80;;;;;;5043284;28;20017;-69
2023/04/23 03:58:21;;;;;;;1999.90;999.90;;;25.20;97.10;;;;;;5034870;28;20030;-69
2023/04/23 04:00:49;;;;;;;1999.90;999.90;;;25.10;96.80;;;;;;5045623;28;20040;-69
2023/04/23 04:03:17;;;;;;;1999.90;999.90;;;25.20;97.20;;;;;;5036593;28;20045;-69
2023/04/23 04:05:44;;;;;;;1999.90;999.90;;;25.40;97.50;;;;;;5044901;28;20033;-69
2023/04/23 04:08:11;;;;;;;1999.90;999.90;;;25.50;96.80;;;;;;5040453;28;20120;-70
2023/04/23 04:10:39;;;;;;;1999.90;999.90;;;25.60;96.20;;;;;;5037345;28;20061;-68
2023/04/23 04:13:07;;;;;;;1999.90;999.90;;;25.70;95.80;;;;;;5041891;28;20468;-68
2023/04/23 04:15:34;;;;;;;1999.90;999.90;;;25.70;96.10;;;;;;5036004;28;20029;-69
2023/04/23 04:18:02;;;;;;;1999.90;999.90;;;25.90;96.10;;;;;;5043415;28;20041;-69
2023/04/23 04:20:29;;;;;;;1999.90;999.90;;;26.00;96.50;;;;;;5039581;28;20494;-68
2023/04/23 04:22:56;;;;;;;1999.90;999.90;;;25.90;96.70;;;;;;5041684;28;20041;-69
2023/04/23 04:25:27;;;;;;;1999.90;999.90;;;25.70;97.20;;;;;;5030561;28;20028;-69
2023/04/23 04:27:56;;;;;;;1999.90;999.90;;;25.40;97.80;;;;;;5035709;28;20029;-69
2023/04/23 04:30:25;;;;;;;1999.90;999.90;;;25.20;98.30;;;;;;5041977;28;20021;-68
2023/04/23 04:32:53;;;;;;;1999.90;999.90;;;24.90;99.00;;;;;;5046294;28;20125;-68
2023/04/23 04:35:20;;;;;;;1999.90;999.90;;;24.70;99.30;;;;;;5038502;28;20044;-69
2023/04/23 04:37:48;;;;;;;1999.90;999.90;;;24.60;99.60;;;;;;5045978;28;20040;-69
2023/04/23 04:40:15;;;;;;;1999.90;999.90;;;24.60;99.30;;;;;;5036165;28;20039;-69
2023/04/23 04:42:45;;;;;;;1999.90;999.90;;;24.70;98.90;;;;;;5044205;28;20484;-69
2023/04/23 04:45:12;;;;;;;1999.90;999.90;;;24.70;98.90;;;;;;5027343;28;20041;-68
2023/04/23 04:47:40;;;;;;;1999.90;999.90;;;24.60;98.90;;;;;;5033460;28;20119;-69
2023/04/23 04:50:08;;;;;;;1999.90;999.90;;;24.50;99.00;;;;;;5027368;28;20088;-68
2023/04/23 04:52:36;;;;;;;1999.90;999.90;;;24.50;99.10;;;;;;5034409;28;20512;-69
2023/04/23 04:55:05;;;;;;;1999.90;999.90;;;24.60;99.40;;;;;;5025494;28;20021;-68
2023/04/23 04:57:32;;;;;;;1999.90;999.90;;;24.70;99.50;;;;;;5026946;28;20029;-68
2023/04/23 05:00:18;;;;;;;1999.90;999.90;;;24.70;99.80;;;;;;5029527;28;20035;-70
2023/04/23 05:02:46;;;;;;;1999.90;999.90;;;24.70;99.90;;;;;;5032813;28;20053;-68
2023/04/23 05:05:14;;;;;;;1999.90;999.90;;;24.70;99.90;;;;;;5041749;28;20126;-68
2023/04/23 05:07:41;;;;;;;1999.90;999.90;;;24.90;99.70;;;;;;5044966;28;20033;-69
2023/04/23 05:10:09;;;;;;;1999.90;999.90;;;25.10;99.50;;;;;;5035818;28;20053;-67
2023/04/23 05:12:40;;;;;;;1999.90;999.90;;;25.30;99.30;;;;;;5044627;28;20545;-68
2023/04/23 05:15:09;;;;;;;1999.90;999.90;;;25.60;98.90;;;;;;5061009;28;20158;-67
2023/04/23 05:17:37;;;;;;;1999.90;999.90;;;25.70;98.80;;;;;;5042127;28;20218;-69
2023/04/23 05:20:05;;;;;;;1999.90;999.90;;;25.70;98.50;;;;;;5037760;28;20036;-68
2023/04/23 05:22:32;;;;;;;1999.90;999.90;;;25.40;98.70;;;;;;5043784;28;20037;-69
2023/04/23 05:24:59;;;;;;;1999.90;999.90;;;25.10;98.90;;;;;;5033123;28;20206;-68
2023/04/23 05:27:27;;;;;;;1999.90;999.90;;;24.90;99.10;;;;;;5040308;28;20043;-69
2023/04/23 05:29:54;;;;;;;1999.90;999.90;;;24.80;99.20;;;;;;5050843;28;20480;-69
2023/04/23 05:32:22;;;;;;;1999.90;999.90;;;24.90;99.40;;;;;;5055286;28;20025;-69
2023/04/23 05:34:49;;;;;;;1999.90;999.90;;;25.00;99.50;;;;;;5054651;28;20405;-68
2023/04/23 05:37:16;;;;;;;1999.90;999.90;;;24.90;99.70;;;;;;5046714;28;20041;-68
2023/04/23 05:39:44;;;;;;;1999.90;999.90;;;24.60;99.90;;;;;;5049056;28;20032;-68
2023/04/23 05:42:12;;;;;;;1999.90;999.90;;;24.30;99.90;;;;;;5049311;28;20162;-68
2023/04/23 05:44:40;;;;;;;1999.90;999.90;;;23.90;99.90;;;;;;5047127;28;20044;-69
2023/04/23 05:47:09;;;;;;;1999.90;999.90;;;23.70;99.90;;;;;;5052385;28;20074;-68
2023/04/23 05:49:37;;;;;;;1999.90;999.90;;;23.50;99.90;;;;;;5045856;28;20036;-68
2023/04/23 05:52:04;;;;;;;1999.90;999.90;;;23.40;99.90;;;;;;5050531;28;20045;-68
2023/04/23 05:54:32;;;;;;;1999.90;999.90;;;23.30;99.90;;;;;;5037072;28;20031;-68
2023/04/23 05:57:00;;;;;;;1999.90;999.90;;;23.20;99.90;;;;;;5046871;28;20033;-67
2023/04/23 05:59:27;;;;;;;1999.90;999.90;;;23.20;99.90;;;;;;5045177;28;20040;-68
2023/04/23 06:01:55;;;;;;;1999.90;999.90;;;23.10;99.90;;;;;;5054437;28;20025;-68
2023/04/23 06:04:22;;;;;;;1999.90;999.90;;;22.90;99.90;;;;;;5052210;28;20037;-68
2023/04/23 06:06:49;;;;;;;1999.90;999.90;;;22.90;99.90;;;;;;5048338;28;20025;-68
2023/04/23 06:09:17;;;;;;;1999.90;999.90;;;22.90;99.90;;;;;;5057299;28;20123;-68
2023/04/23 06:11:44;;;;;;;1999.90;999.90;;;22.80;99.90;;;;;;5050483;28;20436;-69
2023/04/23 06:14:11;;;;;;;1999.90;999.90;;;22.90;99.90;;;;;;5049501;28;20094;-67
2023/04/23 06:16:38;;;;;;;1999.90;999.90;;;22.90;99.90;;;;;;5049809;28;20036;-68
2023/04/23 06:19:06;;;;;;;1999.90;999.90;;;22.90;99.90;;;;;;5049158;28;20047;-68
2023/04/23 06:21:33;;;;;;;1999.90;999.90;;;22.80;99.90;;;;;;5048884;28;20360;-68
2023/04/23 06:24:01;;;;;;;1999.90;999.90;;;22.70;99.90;;;;;;5052175;28;20029;-68
2023/04/23 06:26:28;;;;;;;1999.90;999.90;;;22.60;99.90;;;;;;5041285;28;20029;-68
2023/04/23 06:28:55;;;;;;;1999.90;999.90;;;22.60;99.90;;;;;;5045680;28;20125;-67
2023/04/23 06:31:23;;;;;;;1999.90;999.90;;;22.60;99.90;;;;;;5032957;28;20021;-68
2023/04/23 06:33:50;;;;;;;1999.90;999.90;;;22.50;99.90;;;;;;5045521;28;20033;-69
2023/04/23 06:36:17;;;;;;;1999.90;999.90;;;22.50;99.90;;;;;;5026411;28;20463;-67
2023/04/23 06:38:45;;;;;;;1999.90;999.90;;;22.50;99.90;;;;;;5034320;28;20047;-68
2023/04/23 06:41:12;;;;;;;1999.90;999.90;;;22.50;99.90;;;;;;5041104;28;20033;-68
2023/04/23 06:43:39;;;;;;;1999.90;999.90;;;22.40;99.90;;;;;;5036655;28;20471;-68
2023/04/23 06:46:07;;;;;;;1999.90;999.90;;;22.30;99.90;;;;;;5039387;28;20040;-68
2023/04/23 06:48:34;;;;;;;1999.90;999.90;;;22.20;99.90;;;;;;5023167;28;20038;-69
2023/04/23 06:51:02;;;;;;;1999.90;999.90;;;22.10;99.90;;;;;;5038775;28;20577;-68
2023/04/23 06:53:29;;;;;;;1999.90;999.90;;;22.10;99.90;;;;;;5042428;28;20037;-68
2023/04/23 06:55:57;;;;;;;1999.90;999.90;;;22.00;99.90;;;;;;5043514;28;20025;-67
2023/04/23 06:58:29;;;;;;;1999.90;999.90;;;22.00;99.90;;;;;;5039320;28;20106;-68
2023/04/23 07:01:02;;;;;;;1999.90;999.90;;;21.90;99.90;;;;;;5042220;28;20063;-67
2023/04/23 07:03:30;;;;;;;1999.90;999.90;;;21.80;99.90;;;;;;5037225;28;20109;-68
2023/04/23 07:05:58;;;;;;;1999.90;999.90;;;21.80;99.90;;;;;;5034309;28;20575;-68
2023/04/23 07:08:25;;;;;;;1999.90;999.90;;;21.80;99.90;;;;;;5043845;28;20029;-70
2023/04/23 07:10:52;;;;;;;1999.90;999.90;;;21.60;99.90;;;;;;5044875;28;20041;-68
2023/04/23 07:13:20;;;;;;;1999.90;999.90;;;21.50;99.90;;;;;;5039838;28;20071;-68
2023/04/23 07:15:47;;;;;;;1999.90;999.90;;;21.30;99.90;;;;;;5042849;28;20021;-67
2023/04/23 07:18:15;;;;;;;1999.90;999.90;;;21.00;99.90;;;;;;5041687;28;20098;-68
2023/04/23 07:20:42;;;;;;;1999.90;999.90;;;20.80;99.90;;;;;;5043216;28;20028;-68
2023/04/23 07:23:10;;;;;;;1999.90;999.90;;;20.60;99.90;;;;;;5044683;28;21129;-70
2023/04/23 07:25:37;;;;;;;1999.90;999.90;;;20.50;99.90;;;;;;5045394;28;20067;-68
2023/04/23 07:28:05;;;;;;;1999.90;999.90;;;20.40;99.90;;;;;;5048880;28;20116;-67
2023/04/23 07:30:32;;;;;;;1999.90;999.90;;;20.30;99.90;;;;;;5040221;28;20042;-67
2023/04/23 07:33:00;;;;;;;1999.90;999.90;;;20.20;99.90;;;;;;5040862;28;20041;-67
2023/04/23 07:35:27;;;;;;;1999.90;999.90;;;20.10;99.90;;;;;;5051598;28;20029;-69
2023/04/23 07:37:56;;;;;;;1999.90;999.90;;;20.10;99.90;;;;;;5046561;28;20032;-68
2023/04/23 07:40:24;;;;;;;1999.90;999.90;;;20.00;99.90;;;;;;5053082;28;20036;-68
2023/04/23 07:42:52;;;;;;;1999.90;999.90;;;19.90;99.90;;;;;;5058074;28;20399;-69
2023/04/23 07:45:19;;;;;;;1999.90;999.90;;;19.80;99.90;;;;;;5047884;28;20036;-68
2023/04/23 07:47:49;;;;;;;1999.90;999.90;;;19.80;99.90;;;;;;5048568;28;20033;-69
2023/04/23 07:50:16;;;;;;;1999.90;999.90;;;19.80;99.90;;;;;;5054015;28;20070;-68
2023/04/23 07:52:43;;;;;;;1999.90;999.90;;;19.70;99.90;;;;;;5051162;28;20040;-69
2023/04/23 07:55:11;;;;;;;1999.90;999.90;;;19.80;99.90;;;;;;5051957;28;20033;-67
2023/04/23 07:57:38;;;;;;;1999.90;999.90;;;19.80;99.90;;;;;;5053413;28;20024;-69
2023/04/23 08:00:08;;;;;;;1999.90;999.90;;;19.80;99.90;;;;;;5047653;28;20044;-70
2023/04/23 08:02:35;;;;;;;1999.90;999.90;;;19.80;99.90;;;;;;5040132;28;20029;-69
2023/04/23 08:05:03;;;;;;;1999.90;999.90;;;19.80;99.90;;;;;;5047617;28;20040;-68
2023/04/23 08:07:30;;;;;;;1999.90;999.90;;;19.70;99.90;;;;;;5050649;28;20047;-68
2023/04/23 08:10:01;;;;;;;1999.90;999.90;;;19.70;99.90;;;;;;5040958;28;20126;-69
2023/04/23 08:12:29;;;;;;;1999.90;999.90;;;19.60;99.90;;;;;;5048479;28;20033;-69
2023/04/23 08:14:57;;;;;;;1999.90;999.90;;;19.60;99.90;;;;;;5042199;28;20021;-71
2023/04/23 08:17:25;;;;;;;1999.90;999.90;;;19.60;99.90;;;;;;5049273;28;20071;-69
2023/04/23 08:19:52;;;;;;;1999.90;999.90;;;19.50;99.90;;;;;;5046248;28;20055;-68
2023/04/23 08:22:19;;;;;;;1999.90;999.90;;;19.40;99.90;;;;;;5049568;28;20033;-70
2023/04/23 08:24:46;;;;;;;1999.90;999.90;;;19.40;99.90;;;;;;5042285;28;20112;-68
2023/04/23 08:27:14;;;;;;;1999.90;999.90;;;19.30;99.90;;;;;;5039144;28;20357;-67
2023/04/23 08:29:41;;;;;;;1999.90;999.90;;;19.30;99.90;;;;;;5039541;28;20353;-68
2023/04/23 08:32:09;;;;;;;1999.90;999.90;;;19.20;99.90;;;;;;5040788;28;20386;-69
2023/04/23 08:34:36;;;;;;;1999.90;999.90;;;19.20;99.90;;;;;;5041523;28;20030;-69
2023/04/23 08:37:04;;;;;;;1999.90;999.90;;;19.20;99.90;;;;;;5045445;28;20029;-69
2023/04/23 08:39:33;;;;;;;1999.90;999.90;;;19.20;99.90;;;;;;5041216;28;20045;-68
2023/04/23 08:42:25;;;;;;;1999.90;999.90;;;19.20;99.90;;;;;;5029092;28;20033;-68
2023/04/23 08:44:54;;;;;;;1999.90;999.90;;;19.10;99.90;;;;;;5045147;28;20617;-68
2023/04/23 08:47:24;;;;;;;1999.90;999.90;;;19.10;99.90;;;;;;5059341;28;20082;-67
2023/04/23 08:49:54;;;;;;;1999.90;999.90;;;19.20;99.90;;;;;;5043898;28;20137;-68
2023/04/23 08:52:25;;;;;;;1999.90;999.90;;;19.20;99.90;;;;;;5045752;28;21057;-68
2023/04/23 08:55:00;;;;;;;1999.90;999.90;;;19.10;99.90;;;;;;5046909;28;20159;-69
2023/04/23 08:57:30;;;;;;;1999.90;999.90;;;19.10;99.90;;;;;;5041359;28;20185;-68
2023/04/23 08:59:57;;;;;;;1999.90;999.90;;;19.10;99.90;;;;;;5030339;28;20040;-69
2023/04/23 09:02:27;;;;;;;1999.90;999.90;;;19.10;99.90;;;;;;5041880;28;20025;-68
2023/04/23 09:04:54;;;;;;;1999.90;999.90;;;19.10;99.90;;;;;;5022204;28;20464;-69
2023/04/23 09:07:22;;;;;;;1999.90;999.90;;;19.00;99.90;;;;;;5038897;28;20032;-69
2023/04/23 09:09:49;;;;;;;1999.90;999.90;;;19.00;99.90;;;;;;5043158;28;20132;-71
2023/04/23 09:12:16;;;;;;;1999.90;999.90;;;19.00;99.90;;;;;;5050267;28;20025;-69
2023/04/23 09:14:44;;;;;;;1999.90;999.90;;;19.00;99.90;;;;;;5058247;28;20036;-69
2023/04/23 09:17:11;;;;;;;1999.90;999.90;;;18.90;99.90;;;;;;5055753;28;20491;-70
2023/04/23 09:19:39;;;;;;;1999.90;999.90;;;18.90;99.90;;;;;;5051086;28;20033;-70
2023/04/23 09:22:08;;;;;;;1999.90;999.90;;;18.80;99.90;;;;;;5059264;28;20287;-66
2023/04/23 09:24:35;;;;;;;1999.90;999.90;;;18.80;99.90;;;;;;5054723;28;20043;-71
2023/04/23 09:27:02;;;;;;;1999.90;999.90;;;18.80;99.90;;;;;;5053377;28;20497;-70
2023/04/23 09:29:30;;;;;;;1999.90;999.90;;;18.80;99.90;;;;;;5047765;28;22209;-71
2023/04/23 09:32:07;;;;;;;1999.90;999.90;;;18.80;99.90;;;;;;5051365;28;20034;-70
2023/04/23 09:34:40;;;;;;;1999.90;999.90;;;18.70;99.90;;;;;;5045491;28;20109;-71
2023/04/23 09:37:09;;;;;;;1999.90;999.90;;;18.80;99.90;;;;;;5055999;28;20064;-68
2023/04/23 09:39:36;;;;;;;1999.90;999.90;;;18.70;99.90;;;;;;5049557;28;20112;-70
2023/04/23 09:42:07;;;;;;;1999.90;999.90;;;18.80;99.90;;;;;;5045984;28;20464;-69
2023/04/23 09:44:35;;;;;;;1999.90;999.90;;;18.80;99.90;;;;;;5049195;28;20037;-70
2023/04/23 09:47:10;;;;;;;1999.90;999.90;;;18.70;99.90;;;;;;5060202;28;20083;-70
2023/04/23 09:49:48;;;;;;;1999.90;999.90;;;18.70;99.90;;;;;;5051449;28;20025;-69
2023/04/23 09:52:21;;;;;;;1999.90;999.90;;;18.70;99.90;;;;;;5049949;28;20033;-69
2023/04/23 09:54:49;;;;;;;1999.90;999.90;;;18.80;99.90;;;;;;5045445;28;20103;-69
2023/04/23 09:57:16;;;;;;;1999.90;999.90;;;18.80;99.90;;;;;;5050479;28;20025;-68
2023/04/23 09:59:44;;;;;;;1999.90;999.90;;;18.70;99.90;;;;;;5047792;28;20029;-69
2023/04/23 10:02:11;;;;;;;1999.90;999.90;;;18.70;99.90;;;;;;5050677;28;20083;-68
2023/04/23 10:04:39;;;;;;;1999.90;999.90;;;18.70;99.90;;;;;;5046191;28;20056;-69
2023/04/23 10:07:12;;;;;;;1999.90;999.90;;;18.70;99.90;;;;;;5048025;28;20549;-67
2023/04/23 10:09:41;;;;;;;1999.90;999.90;;;18.60;99.90;;;;;;5048995;28;20049;-69
2023/04/23 10:12:09;;;;;;;1999.90;999.90;;;18.60;99.90;;;;;;5040609;28;20057;-68
2023/04/23 10:14:38;;;;;;;1999.90;999.90;;;18.50;99.90;;;;;;5040950;28;20033;-68
2023/04/23 10:17:06;;;;;;;1999.90;999.90;;;18.60;99.90;;;;;;5036821;28;20112;-68
2023/04/23 10:19:39;;;;;;;1999.90;999.90;;;18.50;99.90;;;;;;5044759;28;20552;-69
2023/04/23 10:22:10;;;;;;;1999.90;999.90;;;18.50;99.90;;;;;;5044991;28;20444;-68
2023/04/23 10:24:41;;;;;;;1999.90;999.90;;;18.50;99.90;;;;;;5037254;28;20101;-68
2023/04/23 10:27:12;;;;;;;1999.90;999.90;;;18.50;99.90;;;;;;5047046;28;20154;-70
2023/04/23 10:29:41;;;;;;;1999.90;999.90;;;18.50;99.90;;;;;;5035309;28;20029;-69
2023/04/23 10:32:08;;;;;;;1999.90;999.90;;;18.40;99.90;;;;;;5054149;28;20458;-70
2023/04/23 10:34:36;;;;;;;1999.90;999.90;;;18.40;99.90;;;;;;5037085;28;20068;-69
2023/04/23 10:37:03;;;;;;;1999.90;999.90;;;18.40;99.90;;;;;;5048448;28;20041;-71
2023/04/23 10:39:35;;;;;;;1999.90;999.90;;;18.40;99.90;;;;;;5055393;28;20137;-70
2023/04/23 10:42:03;;;;;;;1999.90;999.90;;;18.30;99.90;;;;;;5053985;28;20475;-69
2023/04/23 10:44:42;;;;;;;1999.90;999.90;;;18.30;99.90;;;;;;5049300;28;20506;-68
2023/04/23 10:47:16;;;;;;;1999.90;999.90;;;18.40;99.90;;;;;;5055821;28;20032;-68
2023/04/23 10:49:44;;;;;;;1999.90;999.90;;;18.40;99.90;;;;;;5047346;28;20029;-69
2023/04/23 10:52:21;;;;;;;1999.90;999.90;;;18.40;99.90;;;;;;5047847;28;20057;-68
2023/04/23 10:55:00;;;;;;;1999.90;999.90;;;18.40;99.90;;;;;;5029507;28;20045;-69
2023/04/23 10:57:27;;;;;;;1999.90;999.90;;;18.40;99.90;;;;;;5038916;28;20021;-68
2023/04/23 10:59:57;;;;;;;1999.90;999.90;;;18.40;99.90;;;;;;5048210;28;20044;-68
2023/04/23 11:02:25;;;;;;;1999.90;999.90;;;18.40;99.90;;;;;;5051975;28;20056;-68
2023/04/23 11:04:57;;;;;;;1999.90;999.90;;;18.40;99.90;;;;;;5047798;28;20028;-69
2023/04/23 11:07:32;;;;;;;1999.90;999.90;;;18.40;99.90;;;;;;5053775;28;20047;-68
2023/04/23 11:10:11;;;;;;;1999.90;999.90;;;18.30;99.90;;;;;;5051591;28;20052;-71
2023/04/23 11:12:39;;;;;;;1999.90;999.90;;;18.30;99.90;;;;;;5051197;28;20040;-69
2023/04/23 11:15:15;;;;;;;1999.90;999.90;;;18.30;99.90;;;;;;5050186;28;20032;-69
2023/04/23 11:17:41;;;;;;;;;;;18.30;99.90;;;;;;5050351;28;20071;-70
2023/04/23 11:20:14;;;;;;;1999.90;999.90;;;18.20;99.90;;;;;;5043407;28;20257;-69
2023/04/23 11:22:46;;;;;;;1999.90;999.90;;;18.20;99.90;;;;;;5048717;28;20090;-69
2023/04/23 11:25:20;;;;;;;1999.90;999.90;;;18.20;99.90;;;;;;5048282;28;20130;-70
2023/04/23 11:27:50;;;;;;;1999.90;999.90;;;18.20;99.90;;;;;;5045155;28;20048;-68
2023/04/23 11:30:28;;;;;;;1999.90;999.90;;;18.20;99.90;;;;;;5043116;28;20025;-68
2023/04/23 11:32:58;;;;;;;1999.90;999.90;;;18.20;99.90;;;;;;5046089;28;20197;-69
2023/04/23 11:35:32;;;;;;;1999.90;999.90;;;18.20;99.90;;;;;;5044271;28;20020;-69
2023/04/23 11:37:59;;;;;;;1999.90;999.90;;;18.20;99.90;;;;;;5042165;28;20115;-70
2023/04/23 11:40:29;;;;;;;1999.90;999.90;;;18.20;99.90;;;;;;5041934;28;20093;-70
2023/04/23 11:42:57;;;;;;;1999.90;999.90;;;18.20;99.90;;;;;;5044563;28;20036;-68
2023/04/23 11:45:27;;;;;;;1999.90;999.90;;;18.20;99.90;;;;;;5050308;28;20631;-68
2023/04/23 11:47:57;;;;;;;1999.90;999.90;;;18.30;99.90;;;;;;5053307;28;20025;-69
2023/04/23 11:50:27;;;;;;;1999.90;999.90;;;18.30;99.90;;;;;;5052005;28;20021;-67
2023/04/23 11:52:54;;;;;;;1999.90;999.90;;;18.20;99.90;;;;;;5046402;28;21528;-69
2023/04/23 11:55:22;;;;;;;1999.90;999.90;;;18.30;99.90;;;;;;5032961;28;20121;-68
2023/04/23 11:57:51;;;;;;;1999.90;999.90;;;18.30;99.90;;;;;;5030541;28;20028;-68
2023/04/23 12:00:21;;;;;;;1999.90;999.90;;;18.30;99.90;;;;;;5027117;28;20048;-67
2023/04/23 12:02:59;;;;;;;1999.90;999.90;;;18.30;99.90;;;;;;5033367;28;20021;-67
2023/04/23 12:05:36;;;;;;;1999.90;999.90;;;18.30;99.90;;;;;;5029186;28;20040;-68